createdAt,value
2022-08-31T00:00:30.855Z,1.45
2022-08-31T00:03:20.216Z,1.40
2022-08-31T00:05:50.170Z,1.50
2022-08-31T00:08:19.160Z,1.02
2022-08-31T00:11:00.247Z,1.30
2022-08-31T00:13:30.509Z,1.08
2022-08-31T00:16:05.585Z,1.55
2022-08-31T00:18:41.682Z,1.40
2022-08-31T00:21:11.587Z,1.10
2022-08-31T00:23:44.987Z,1.48
2022-08-31T00:26:15.898Z,1.23
2022-08-31T00:28:46.664Z,1.40
2022-08-31T00:31:20.500Z,1.40
2022-08-31T00:33:56.536Z,1.38
2022-08-31T00:36:28.998Z,1.27
2022-08-31T00:39:03.178Z,1.27
2022-08-31T00:41:48.324Z,1.23
2022-08-31T00:44:24.674Z,1.52
2022-08-31T00:46:56.656Z,1.50
2022-08-31T00:49:53.769Z,1.65
2022-08-31T00:52:50.050Z,1.27
2022-08-31T00:55:27.404Z,1.40
2022-08-31T00:58:02.892Z,1.33
2022-08-31T01:00:33.043Z,1.50
2022-08-31T01:03:07.462Z,1.35
2022-08-31T01:05:44.196Z,1.30
2022-08-31T01:08:18.483Z,1.23
2022-08-31T01:10:51.848Z,1.75
2022-08-31T01:13:31.590Z,1.23
2022-08-31T01:16:07.543Z,1.50
2022-08-31T01:18:46.551Z,1.38
2022-08-31T01:21:27.055Z,1.30
2022-08-31T01:24:16.252Z,1.15
2022-08-31T01:26:49.584Z,1.40
2022-08-31T01:29:33.830Z,1.23
2022-08-31T01:32:13.988Z,1.50
2022-08-31T01:34:50.478Z,1.27
2022-08-31T01:37:19.978Z,1.35
2022-08-31T01:40:00.837Z,1.25
2022-08-31T01:42:42.534Z,1.40
2022-08-31T01:45:21.518Z,1.48
2022-08-31T01:47:50.500Z,1.30
2022-08-31T01:50:33.512Z,1.10
2022-08-31T01:53:09.127Z,1.40
2022-08-31T01:55:40.717Z,1.40
2022-08-31T01:58:20.794Z,1.27
2022-08-31T02:01:33.765Z,1.40
2022-08-31T02:04:07.775Z,1.33
2022-08-31T02:06:39.287Z,1.23
2022-08-31T02:09:11.842Z,1.63
2022-08-31T02:11:54.412Z,1.40
2022-08-31T02:14:31.175Z,1.33
2022-08-31T02:17:15.208Z,1.38
2022-08-31T02:19:45.678Z,1.27
2022-08-31T02:22:22.322Z,1.75
2022-08-31T02:24:52.762Z,1.85
2022-08-31T02:27:25.394Z,1.30
2022-08-31T02:29:56.808Z,1.55
2022-08-31T02:35:02.245Z,1.02
2022-08-31T02:37:31.481Z,0.98
2022-08-31T02:40:10.992Z,1.77
2022-08-31T02:42:53.002Z,1.42
2022-08-31T02:45:29.230Z,1.05
2022-08-31T02:48:17.236Z,1.20
2022-08-31T02:50:56.352Z,1.63
2022-08-31T02:53:31.267Z,1.00
2022-08-31T02:56:09.855Z,1.58
2022-08-31T02:58:42.864Z,1.83
2022-08-31T03:04:01.604Z,1.40
2022-08-31T03:06:35.510Z,1.58
2022-08-31T03:09:15.637Z,1.42
2022-08-31T03:11:50.297Z,1.50
2022-08-31T03:14:21.430Z,1.60
2022-08-31T03:16:53.264Z,1.10
2022-08-31T03:19:26.109Z,1.40
2022-08-31T03:21:57.887Z,1.43
2022-08-31T03:24:31.302Z,1.13
2022-08-31T03:27:02.160Z,1.92
2022-08-31T03:29:45.220Z,1.48
2022-08-31T03:32:22.404Z,1.42
2022-08-31T03:35:03.604Z,1.13
2022-08-31T03:37:34.801Z,1.35
2022-08-31T03:40:09.874Z,1.35
2022-08-31T03:42:53.060Z,1.23
2022-08-31T03:45:52.421Z,1.10
2022-08-31T03:48:24.908Z,1.37
2022-08-31T03:51:07.341Z,1.37
2022-08-31T03:53:39.895Z,1.23
2022-08-31T03:56:09.575Z,1.38
2022-08-31T03:58:45.169Z,1.33
2022-08-31T04:01:36.879Z,1.10
2022-08-31T04:04:29.449Z,1.30
2022-08-31T04:07:02.676Z,1.30
2022-08-31T04:09:58.189Z,1.43
2022-08-31T04:13:08.522Z,1.57
2022-08-31T04:16:05.951Z,1.67
2022-08-31T04:19:18.739Z,1.27
2022-08-31T04:22:05.059Z,1.47
2022-08-31T04:24:44.546Z,1.50
2022-08-31T04:27:17.053Z,1.00
2022-08-31T04:29:57.403Z,1.73
2022-08-31T04:32:33.960Z,1.40
2022-08-31T04:37:54.285Z,1.57
2022-08-31T04:40:25.979Z,1.10
2022-08-31T04:42:58.491Z,1.50
2022-08-31T04:45:29.341Z,1.48
2022-08-31T04:48:00.989Z,1.20
2022-08-31T04:50:42.456Z,1.27
2022-08-31T04:56:09.822Z,1.38
2022-08-31T04:58:40.994Z,1.50
2022-08-31T05:01:19.161Z,1.35
2022-08-31T05:04:13.603Z,1.20
2022-08-31T05:06:58.607Z,1.55
2022-08-31T05:09:34.092Z,1.20
2022-08-31T05:12:15.668Z,1.80
2022-08-31T05:14:50.952Z,1.67
2022-08-31T05:17:39.196Z,1.77
2022-08-31T05:20:09.707Z,1.30
2022-08-31T05:22:48.659Z,1.57
2022-08-31T05:25:24.640Z,1.80
2022-08-31T05:27:59.845Z,1.42
2022-08-31T05:30:37.311Z,1.75
2022-08-31T05:33:15.907Z,1.55
2022-08-31T05:35:53.686Z,1.70
2022-08-31T05:38:23.755Z,1.80
2022-08-31T05:40:56.166Z,1.90
2022-08-31T05:43:32.304Z,2.25
2022-08-31T05:46:10.486Z,2.33
2022-08-31T05:48:54.800Z,2.10
2022-08-31T05:51:25.941Z,1.77
2022-08-31T05:56:39.792Z,1.73
2022-08-31T05:59:10.634Z,1.65
2022-08-31T06:01:51.086Z,2.08
2022-08-31T06:04:36.957Z,2.05
2022-08-31T06:07:10.529Z,1.63
2022-08-31T06:09:56.266Z,2.05
2022-08-31T06:12:33.776Z,1.73
2022-08-31T06:15:11.511Z,1.92
2022-08-31T06:17:45.603Z,1.83
2022-08-31T06:20:22.064Z,1.60
2022-08-31T06:23:03.411Z,1.65
2022-08-31T06:26:03.961Z,2.05
2022-08-31T06:28:39.105Z,1.77
2022-08-31T06:31:19.089Z,1.85
2022-08-31T06:33:57.551Z,1.80
2022-08-31T06:36:47.768Z,1.48
2022-08-31T06:39:45.773Z,2.47
2022-08-31T06:42:31.585Z,1.92
2022-08-31T06:45:40.042Z,2.35
2022-08-31T06:48:53.810Z,2.00
2022-08-31T06:51:33.086Z,1.33
2022-08-31T06:54:28.039Z,1.67
2022-08-31T06:57:20.146Z,1.80
2022-08-31T07:00:21.688Z,1.80
2022-08-31T07:03:39.016Z,1.58
2022-08-31T07:06:20.537Z,1.25
2022-08-31T07:09:07.484Z,1.40
2022-08-31T07:11:45.083Z,1.73
2022-08-31T07:14:19.738Z,1.50
2022-08-31T07:16:51.036Z,1.92
2022-08-31T07:19:40.114Z,1.75
2022-08-31T07:22:20.479Z,2.08
2022-08-31T07:24:59.354Z,1.38
2022-08-31T07:27:43.720Z,1.63
2022-08-31T07:30:19.318Z,1.48
2022-08-31T07:32:50.619Z,2.08
2022-08-31T07:35:37.719Z,1.63
2022-08-31T07:38:52.495Z,1.40
2022-08-31T07:41:43.467Z,1.67
2022-08-31T07:44:14.820Z,1.65
2022-08-31T07:46:53.085Z,1.98
2022-08-31T07:49:28.698Z,1.58
2022-08-31T07:52:32.084Z,1.40
2022-08-31T07:55:34.558Z,1.70
2022-08-31T07:58:09.272Z,1.83
2022-08-31T08:00:41.353Z,1.70
2022-08-31T08:03:15.207Z,1.75
2022-08-31T08:06:11.334Z,2.10
2022-08-31T08:09:22.249Z,1.92
2022-08-31T08:12:12.905Z,1.50
2022-08-31T08:15:05.415Z,1.23
2022-08-31T08:20:39.154Z,1.00
2022-08-31T08:23:26.809Z,1.00
2022-08-31T08:26:23.139Z,1.27
2022-08-31T08:29:07.207Z,1.40
2022-08-31T08:31:45.549Z,1.40
2022-08-31T08:34:21.224Z,1.05
2022-08-31T08:37:01.024Z,1.35
2022-08-31T08:42:15.864Z,0.95
2022-08-31T08:44:54.850Z,1.10
2022-08-31T08:47:38.324Z,1.13
2022-08-31T08:50:21.127Z,1.00
2022-08-31T08:52:53.268Z,1.35
2022-08-31T08:55:39.469Z,1.10
2022-08-31T08:58:13.575Z,1.52
2022-08-31T09:00:47.939Z,1.30
2022-08-31T09:03:49.064Z,1.00
2022-08-31T09:07:12.408Z,1.25
2022-08-31T09:10:08.093Z,1.17
2022-08-31T09:13:15.218Z,1.23
2022-08-31T09:15:51.625Z,1.33
2022-08-31T09:18:40.049Z,0.90
2022-08-31T09:21:45.485Z,0.82
2022-08-31T09:24:23.379Z,1.20
2022-08-31T09:27:40.836Z,0.90
2022-08-31T09:30:25.185Z,1.05
2022-08-31T09:33:01.437Z,0.90
2022-08-31T09:35:44.816Z,1.10
2022-08-31T09:38:32.552Z,1.38
2022-08-31T09:41:08.136Z,0.68
2022-08-31T09:43:44.112Z,0.90
2022-08-31T09:46:33.147Z,0.70
2022-08-31T09:49:05.403Z,0.57
2022-08-31T09:51:47.192Z,0.90
2022-08-31T09:54:35.210Z,0.88
2022-08-31T09:57:11.537Z,0.50
2022-08-31T09:59:56.250Z,0.90
2022-08-31T10:02:50.811Z,1.00
2022-08-31T10:06:05.437Z,0.40
2022-08-31T10:08:58.634Z,0.40
2022-08-31T10:11:32.598Z,0.60
2022-08-31T10:14:24.025Z,0.80
2022-08-31T10:20:26.262Z,0.70
2022-08-31T10:23:13.275Z,0.70
2022-08-31T10:25:55.268Z,0.65
2022-08-31T10:28:53.466Z,0.60
2022-08-31T10:31:48.803Z,0.90
2022-08-31T10:34:56.727Z,0.80
2022-08-31T10:37:36.075Z,0.70
2022-08-31T10:40:18.786Z,0.80
2022-08-31T10:43:25.575Z,0.50
2022-08-31T10:45:59.203Z,0.73
2022-08-31T10:48:28.961Z,0.95
2022-08-31T10:51:18.478Z,1.00
2022-08-31T10:54:23.308Z,0.63
2022-08-31T10:57:37.948Z,0.50
2022-08-31T11:00:52.489Z,0.70
2022-08-31T11:03:50.477Z,0.90
2022-08-31T11:06:54.755Z,0.93
2022-08-31T11:09:41.995Z,0.70
2022-08-31T11:12:19.627Z,0.73
2022-08-31T11:15:27.527Z,0.52
2022-08-31T11:18:49.191Z,0.73
2022-08-31T11:21:45.873Z,0.40
2022-08-31T11:24:51.489Z,0.70
2022-08-31T11:27:39.370Z,0.70
2022-08-31T11:30:41.238Z,0.70
2022-08-31T11:33:21.381Z,0.65
2022-08-31T11:36:07.017Z,0.70
2022-08-31T11:39:21.175Z,0.95
2022-08-31T11:42:01.608Z,0.70
2022-08-31T11:44:52.598Z,1.00
2022-08-31T11:47:51.178Z,1.02
2022-08-31T11:50:28.362Z,0.73
2022-08-31T11:53:02.286Z,0.98
2022-08-31T11:55:53.559Z,0.80
2022-08-31T11:58:39.177Z,0.75
2022-08-31T12:01:51.640Z,1.10
2022-08-31T12:05:07.661Z,0.77
2022-08-31T12:07:53.364Z,0.93
2022-08-31T12:10:52.687Z,0.70
2022-08-31T12:13:59.173Z,1.40
2022-08-31T12:17:02.853Z,0.73
2022-08-31T12:23:39.853Z,1.15
2022-08-31T12:26:52.554Z,1.43
2022-08-31T12:29:37.223Z,0.93
2022-08-31T12:32:52.048Z,1.13
2022-08-31T12:35:31.392Z,1.02
2022-08-31T12:38:19.809Z,1.10
2022-08-31T12:40:59.110Z,1.00
2022-08-31T12:43:33.173Z,1.30
2022-08-31T12:46:43.142Z,1.60
2022-08-31T12:49:32.173Z,1.52
2022-08-31T12:52:38.727Z,1.52
2022-08-31T12:55:45.182Z,1.33
2022-08-31T12:59:11.158Z,1.73
2022-08-31T13:01:56.044Z,1.40
2022-08-31T13:04:31.064Z,1.70
2022-08-31T13:07:44.380Z,1.27
2022-08-31T13:10:27.269Z,1.63
2022-08-31T13:13:11.904Z,1.40
2022-08-31T13:15:50.622Z,2.58
2022-08-31T13:18:32.034Z,1.88
2022-08-31T13:21:13.245Z,1.05
2022-08-31T13:23:53.255Z,1.30
2022-08-31T13:26:39.032Z,1.50
2022-08-31T13:29:20.146Z,1.42
2022-08-31T13:31:57.535Z,1.42
2022-08-31T13:34:27.017Z,1.55
2022-08-31T13:37:06.649Z,1.10
2022-08-31T13:39:45.007Z,1.08
2022-08-31T13:42:41.649Z,1.40
2022-08-31T13:46:05.526Z,0.95
2022-08-31T13:48:41.653Z,1.60
2022-08-31T13:51:20.605Z,0.98
2022-08-31T13:54:10.425Z,0.82
2022-08-31T13:57:02.930Z,1.38
2022-08-31T13:59:41.271Z,1.23
2022-08-31T14:02:36.939Z,1.30
2022-08-31T14:05:19.281Z,1.35
2022-08-31T14:08:04.372Z,1.48
2022-08-31T14:10:41.741Z,1.00
2022-08-31T14:13:30.350Z,1.33
2022-08-31T14:16:07.518Z,1.42
2022-08-31T14:18:51.244Z,1.10
2022-08-31T14:21:30.074Z,1.30
2022-08-31T14:24:11.207Z,0.95
2022-08-31T14:26:47.604Z,1.00
2022-08-31T14:29:22.466Z,1.00
2022-08-31T14:31:56.138Z,1.00
2022-08-31T14:34:41.360Z,1.10
2022-08-31T14:37:23.237Z,1.05
2022-08-31T14:40:06.581Z,0.90
2022-08-31T14:42:42.515Z,1.17
2022-08-31T14:45:22.405Z,1.17
2022-08-31T14:47:54.311Z,1.10
2022-08-31T14:50:27.210Z,1.10
2022-08-31T14:52:58.747Z,1.10
2022-08-31T14:55:33.498Z,1.15
2022-08-31T14:58:11.977Z,0.90
2022-08-31T15:00:55.445Z,0.90
2022-08-31T15:03:39.637Z,1.10
2022-08-31T15:06:15.922Z,0.70
2022-08-31T15:08:48.617Z,1.10
2022-08-31T15:11:30.044Z,0.90
2022-08-31T15:14:17.005Z,1.35
2022-08-31T15:16:49.634Z,0.95
2022-08-31T15:19:29.872Z,1.00
2022-08-31T15:22:03.186Z,1.20
2022-08-31T15:27:22.955Z,1.13
2022-08-31T15:30:11.685Z,1.20
2022-08-31T15:32:43.743Z,1.20
2022-08-31T15:35:26.270Z,1.20
2022-08-31T15:38:02.632Z,1.02
2022-08-31T15:40:38.966Z,1.00
2022-08-31T15:43:26.949Z,1.30
2022-08-31T15:46:13.794Z,1.20
2022-08-31T15:48:46.063Z,1.08
2022-08-31T15:51:29.039Z,0.93
2022-08-31T15:54:22.076Z,1.10
2022-08-31T15:57:12.411Z,0.88
2022-08-31T15:59:46.873Z,0.80
2022-08-31T16:02:24.267Z,1.02
2022-08-31T16:05:00.507Z,1.02
2022-08-31T16:07:29.997Z,1.02
2022-08-31T16:10:03.356Z,1.10
2022-08-31T16:12:43.116Z,1.17
2022-08-31T16:15:24.870Z,1.00
2022-08-31T16:18:09.778Z,0.90
2022-08-31T16:20:49.937Z,0.90
2022-08-31T16:23:22.091Z,1.10
2022-08-31T16:25:53.135Z,0.90
2022-08-31T16:28:24.500Z,1.35
2022-08-31T16:34:02.435Z,0.90
2022-08-31T16:36:34.753Z,1.23
2022-08-31T16:39:12.626Z,1.40
2022-08-31T16:41:57.335Z,0.85
2022-08-31T16:47:27.142Z,1.15
2022-08-31T16:50:02.878Z,0.77
2022-08-31T16:52:37.303Z,1.27
2022-08-31T16:55:07.182Z,0.95
2022-08-31T16:57:38.154Z,1.15
2022-08-31T17:00:08.699Z,1.00
2022-08-31T17:02:49.367Z,1.10
2022-08-31T17:05:28.359Z,0.70
2022-08-31T17:08:00.773Z,0.90
2022-08-31T17:10:32.061Z,1.10
2022-08-31T17:13:08.715Z,1.10
2022-08-31T17:15:39.969Z,1.27
2022-08-31T17:18:30.364Z,1.20
2022-08-31T17:21:02.430Z,1.25
2022-08-31T17:23:38.646Z,1.40
2022-08-31T17:26:15.499Z,1.40
2022-08-31T17:29:03.447Z,1.15
2022-08-31T17:31:38.987Z,1.52
2022-08-31T17:34:10.180Z,1.33
2022-08-31T17:36:52.920Z,1.50
2022-08-31T17:39:29.826Z,1.38
2022-08-31T17:42:08.908Z,1.52
2022-08-31T17:47:33.946Z,1.30
2022-08-31T17:50:13.100Z,1.20
2022-08-31T17:52:45.013Z,1.50
2022-08-31T17:55:22.654Z,1.10
2022-08-31T17:57:56.034Z,1.50
2022-08-31T18:00:30.717Z,1.70
2022-08-31T18:03:16.290Z,1.73
2022-08-31T18:05:53.977Z,1.38
2022-08-31T18:08:25.966Z,1.25
2022-08-31T18:10:59.943Z,1.20
2022-08-31T18:13:44.548Z,1.48
2022-08-31T18:16:22.328Z,1.15
2022-08-31T18:18:54.091Z,1.33
2022-08-31T18:21:33.346Z,1.25
2022-08-31T18:24:08.664Z,1.17
2022-08-31T18:26:47.569Z,1.33
2022-08-31T18:29:25.263Z,1.27
2022-08-31T18:31:59.434Z,1.30
2022-08-31T18:34:47.675Z,1.63
2022-08-31T18:37:24.893Z,1.27
2022-08-31T18:40:13.969Z,1.13
2022-08-31T18:43:06.606Z,1.48
2022-08-31T18:45:52.914Z,1.65
2022-08-31T18:48:53.439Z,1.17
2022-08-31T18:51:27.126Z,1.00
2022-08-31T18:54:01.852Z,1.50
2022-08-31T18:56:33.890Z,0.98
2022-08-31T18:59:18.516Z,1.85
2022-08-31T19:01:53.732Z,1.02
2022-08-31T19:04:26.685Z,1.23
2022-08-31T19:07:10.938Z,1.50
2022-08-31T19:09:47.432Z,1.55
2022-08-31T19:12:21.862Z,1.50
2022-08-31T19:14:56.449Z,1.20
2022-08-31T19:17:36.199Z,1.23
2022-08-31T19:20:11.576Z,2.00
2022-08-31T19:22:49.656Z,1.40
2022-08-31T19:25:31.665Z,1.23
2022-08-31T19:28:12.655Z,1.60
2022-08-31T19:30:49.217Z,1.45
2022-08-31T19:33:25.691Z,1.63
2022-08-31T19:36:24.419Z,1.10
2022-08-31T19:38:58.882Z,1.63
2022-08-31T19:41:49.370Z,1.25
2022-08-31T19:44:25.986Z,1.15
2022-08-31T19:47:07.637Z,1.58
2022-08-31T19:49:46.771Z,1.35
2022-08-31T19:52:20.452Z,1.48
2022-08-31T19:55:09.110Z,1.30
2022-08-31T19:57:46.161Z,1.30
2022-08-31T20:00:17.691Z,1.52
2022-08-31T20:02:55.145Z,1.88
2022-08-31T20:05:26.917Z,1.60
2022-08-31T20:08:07.023Z,1.13
2022-08-31T20:10:35.972Z,1.23
2022-08-31T20:13:12.040Z,1.35
2022-08-31T20:18:32.709Z,1.15
2022-08-31T20:21:09.226Z,1.50
2022-08-31T20:23:52.679Z,1.48
2022-08-31T20:26:46.363Z,1.25
2022-08-31T20:29:33.305Z,1.20
2022-08-31T20:32:14.767Z,1.70
2022-08-31T20:34:47.253Z,1.80
2022-08-31T20:37:31.473Z,1.60
2022-08-31T20:40:03.392Z,1.60
2022-08-31T20:42:38.180Z,1.35
2022-08-31T20:45:08.439Z,1.40
2022-08-31T20:47:56.242Z,1.60
2022-08-31T20:50:32.507Z,1.80
2022-08-31T20:53:09.388Z,1.60
2022-08-31T20:55:48.986Z,1.63
2022-08-31T20:58:22.104Z,2.00
2022-08-31T21:00:54.263Z,1.58
2022-08-31T21:03:26.504Z,1.35
2022-08-31T21:06:13.011Z,1.85
2022-08-31T21:08:43.739Z,1.60
2022-08-31T21:11:17.223Z,2.00
2022-08-31T21:13:52.974Z,1.50
2022-08-31T21:16:24.265Z,1.40
2022-08-31T21:18:56.377Z,1.00
2022-08-31T21:21:33.279Z,1.30
2022-08-31T21:24:09.763Z,1.85
2022-08-31T21:26:52.917Z,1.63
2022-08-31T21:29:24.446Z,1.77
2022-08-31T21:34:34.023Z,1.40
2022-08-31T21:37:05.225Z,1.67
2022-08-31T21:39:36.119Z,1.30
2022-08-31T21:42:13.743Z,1.98
2022-08-31T21:44:51.065Z,1.30
2022-08-31T21:47:21.658Z,1.35
2022-08-31T21:50:00.523Z,1.57
2022-08-31T21:52:44.430Z,1.25
2022-08-31T21:55:23.526Z,1.27
2022-08-31T21:57:58.393Z,1.35
2022-08-31T22:00:30.255Z,1.63
2022-08-31T22:03:06.699Z,1.10
2022-08-31T22:05:46.213Z,1.48
2022-08-31T22:08:17.673Z,1.70
2022-08-31T22:11:02.704Z,0.80
2022-08-31T22:13:34.022Z,1.05
2022-08-31T22:16:18.805Z,1.42
2022-08-31T22:19:02.190Z,1.10
2022-08-31T22:21:40.386Z,0.90
2022-08-31T22:24:13.097Z,0.85
2022-08-31T22:27:04.058Z,1.00
2022-08-31T22:29:44.762Z,0.95
2022-08-31T22:34:56.748Z,1.08
2022-08-31T22:37:38.237Z,0.68
2022-08-31T22:40:23.958Z,1.10
2022-08-31T22:43:05.602Z,1.35
2022-08-31T22:45:38.159Z,0.80
2022-08-31T22:48:08.648Z,1.02
2022-08-31T22:50:45.523Z,0.77
2022-08-31T22:53:16.779Z,1.02
2022-08-31T22:55:50.764Z,0.95
2022-08-31T22:58:22.543Z,1.38
2022-08-31T23:00:56.783Z,1.00
2022-08-31T23:03:36.035Z,0.70
2022-08-31T23:06:08.827Z,1.33
2022-08-31T23:08:49.133Z,1.27
2022-08-31T23:11:26.718Z,0.97
2022-08-31T23:14:09.561Z,1.48
2022-08-31T23:16:47.042Z,1.08
2022-08-31T23:19:24.043Z,0.63
2022-08-31T23:21:59.810Z,1.02
2022-08-31T23:24:42.254Z,0.60
2022-08-31T23:27:13.304Z,0.73
2022-08-31T23:29:52.730Z,0.73
2022-08-31T23:32:29.793Z,0.90
2022-08-31T23:35:03.428Z,1.00
2022-08-31T23:37:42.530Z,0.88
2022-08-31T23:40:37.337Z,0.80
2022-08-31T23:43:15.796Z,0.93
2022-08-31T23:45:50.296Z,1.05
2022-08-31T23:48:33.317Z,0.68
2022-08-31T23:51:05.517Z,0.88
2022-08-31T23:53:42.701Z,0.85
2022-08-31T23:56:22.696Z,1.00
2022-08-31T23:58:59.831Z,1.00
